Time;durP1;ratioP1;P1;durP2;ratioP2;P2;SDS_P1;SDS_P2;PMS_P1;PMS_P2;Temp;Humidity;BMP_temperature;BMP_pressure;BME280_temperature;BME280_humidity;BME280_pressure;Samples;Min_cycle;Max_cycle;Signal;HPM_P1;HPM_P2
2021/12/18 00:01:08;;;;;;;42.67;29.52;;;;;;;7.51;54.79;97166.38;5052835;28;20059;-65
2021/12/18 00:03:34;;;;;;;49.45;31.00;;;;;;;8.06;54.43;97198.44;5068722;28;20031;-64
2021/12/18 00:06:00;;;;;;;45.42;29.63;;;;;;;7.41;55.11;97179.41;5069168;28;20476;-64
2021/12/18 00:08:25;;;;;;;48.33;29.38;;;;;;;7.46;55.62;97213.94;5053025;28;20029;-65
2021/12/18 00:10:52;;;;;;;47.22;31.15;;;;;;;8.06;54.48;97216.19;5070941;28;20021;-64
2021/12/18 00:13:19;;;;;;;48.33;30.05;;;;;;;8.10;54.55;97211.25;5071207;28;20016;-65
2021/12/18 00:15:45;;;;;;;42.78;28.42;;;;;;;8.65;53.30;97208.78;5071162;28;20076;-65
2021/12/18 00:18:11;;;;;;;45.10;29.88;;;;;;;8.83;52.03;97160.78;5069305;28;20036;-64
2021/12/18 00:20:38;;;;;;;46.10;30.02;;;;;;;9.30;51.36;97192.22;5067216;28;20032;-65
2021/12/18 00:23:04;;;;;;;43.33;29.88;;;;;;;9.32;50.26;97170.75;5052872;28;20020;-65
2021/12/18 00:25:30;;;;;;;48.22;30.15;;;;;;;9.81;49.95;97206.16;5070847;28;20020;-64
2021/12/18 00:27:55;;;;;;;42.05;28.85;;;;;;;10.02;50.07;97206.38;5053031;28;20029;-64
2021/12/18 00:30:22;;;;;;;42.97;29.08;;;;;;;10.03;49.03;97197.34;5070235;28;20031;-64
2021/12/18 00:32:47;;;;;;;44.28;29.75;;;;;;;10.08;48.86;97192.09;5051751;28;20102;-65
2021/12/18 00:35:13;;;;;;;46.13;30.02;;;;;;;9.84;48.49;97179.09;5050520;28;20453;-65
2021/12/18 00:37:38;;;;;;;38.25;25.40;;;;;;;9.90;48.76;97225.94;5069128;28;20386;-65
2021/12/18 00:40:09;;;;;;;43.13;25.80;;;;;;;9.37;49.20;97232.72;5070108;28;20640;-64
2021/12/18 00:45:00;;;;;;;47.08;25.80;;;;;;;6.75;57.21;97219.25;5070747;28;20029;-64
2021/12/18 00:47:25;;;;;;;45.63;24.85;;;;;;;6.59;56.54;97214.63;5052674;28;20035;-65
2021/12/18 00:49:51;;;;;;;46.03;25.25;;;;;;;6.41;58.69;97230.56;5041717;28;20025;-65
2021/12/18 00:52:16;;;;;;;52.50;27.77;;;;;;;6.39;59.02;97244.00;5051262;28;20428;-64
2021/12/18 00:54:41;;;;;;;50.47;27.33;;;;;;;6.97;57.55;97226.66;5070308;28;20048;-64
2021/12/18 00:57:07;;;;;;;49.50;26.35;;;;;;;6.96;56.89;97240.88;5070229;28;20032;-65
2021/12/18 00:59:34;;;;;;;46.05;25.65;;;;;;;6.14;59.41;97215.09;5069341;28;20033;-64
2021/12/18 01:01:59;;;;;;;47.30;25.85;;;;;;;6.09;59.11;97240.56;5069716;28;20036;-65
2021/12/18 01:04:26;;;;;;;50.05;26.33;;;;;;;7.30;56.62;97232.16;5061873;28;20024;-64
2021/12/18 01:06:51;;;;;;;54.05;27.63;;;;;;;8.20;55.27;97249.34;5067615;28;20020;-65
2021/12/18 01:09:20;;;;;;;58.47;26.23;;;;;;;6.52;57.97;97245.66;5051181;28;20047;-64
2021/12/18 01:11:48;;;;;;;58.88;28.05;;;;;;;7.61;55.03;97232.81;5051944;28;20036;-64
2021/12/18 01:24:51;;;;;;;54.47;25.15;;;;;;;6.25;58.40;97274.31;5069994;28;20097;-64
2021/12/18 01:27:16;;;;;;;54.28;27.95;;;;;;;6.65;57.34;97273.72;5051649;28;20502;-64
2021/12/18 01:29:42;;;;;;;55.60;28.20;;;;;;;7.03;56.92;97258.28;5069068;28;20025;-64
2021/12/18 01:32:08;;;;;;;54.00;26.73;;;;;;;7.41;56.01;97291.41;5051938;28;20486;-64
2021/12/18 01:34:35;;;;;;;54.92;26.92;;;;;;;7.67;55.07;97286.69;5063080;28;20474;-64
2021/12/18 01:37:00;;;;;;;51.95;25.95;;;;;;;7.84;54.29;97261.09;5069115;28;20028;-64
2021/12/18 01:39:25;;;;;;;51.53;25.67;;;;;;;8.08;53.78;97272.41;5051173;28;20025;-65
2021/12/18 01:44:58;;;;;;;60.45;27.73;;;;;;;7.97;53.85;97286.50;5069749;28;20065;-64
2021/12/18 01:52:47;;;;;;;56.63;27.42;;;;;;;8.57;52.54;97283.44;5068479;28;20093;-64
2021/12/18 01:55:13;;;;;;;61.47;28.98;;;;;;;8.25;52.73;97280.44;5069708;28;20028;-64
2021/12/18 01:57:38;;;;;;;62.45;29.48;;;;;;;7.90;53.12;97254.84;5069428;28;20089;-64
2021/12/18 02:00:27;;;;;;;68.28;30.85;;;;;;;8.32;52.45;97263.34;5050723;28;20025;-64
2021/12/18 02:02:52;;;;;;;57.70;29.23;;;;;;;8.22;52.52;97234.00;5051746;28;20028;-64
2021/12/18 02:05:18;;;;;;;58.38;28.95;;;;;;;8.41;51.91;97217.91;5062272;28;20469;-64
2021/12/18 02:07:43;;;;;;;68.30;31.67;;;;;;;8.76;51.64;97237.09;5068036;28;20051;-64
2021/12/18 02:10:17;;;;;;;65.10;31.33;;;;;;;8.75;51.21;97201.00;5050720;28;20066;-64
2021/12/18 02:20:45;;;;;;;55.08;28.00;;;;;;;9.27;50.07;97235.22;5061669;28;20130;-64
2021/12/18 02:23:11;;;;;;;61.92;31.25;;;;;;;9.22;50.04;97229.84;5039224;28;20021;-64
2021/12/18 02:25:37;;;;;;;65.55;31.27;;;;;;;9.11;50.36;97226.22;5073462;28;20817;-64
2021/12/18 02:28:06;;;;;;;59.88;29.75;;;;;;;9.20;50.18;97221.28;5073071;28;20039;-64
2021/12/18 02:30:33;;;;;;;63.42;30.52;;;;;;;9.12;50.27;97189.88;5073000;28;20020;-64
2021/12/18 02:32:58;;;;;;;69.88;30.98;;;;;;;9.20;49.65;97192.09;5055272;28;20040;-64
2021/12/18 02:35:31;;;;;;;60.05;31.45;;;;;;;9.45;49.41;97230.66;5046656;28;20055;-64
2021/12/18 02:38:12;;;;;;;83.13;32.72;;;;;;;9.40;49.82;97233.25;5053174;28;20027;-64
2021/12/18 02:40:52;;;;;;;67.75;30.05;;;;;;;9.11;49.69;97220.13;5072920;28;20021;-64
2021/12/18 02:43:17;;;;;;;74.05;30.85;;;;;;;8.90;49.50;97212.88;5073200;28;20040;-65
2021/12/18 02:45:43;;;;;;;70.57;31.95;;;;;;;9.06;50.22;97217.38;5072697;28;20064;-63
2021/12/18 02:48:08;;;;;;;66.07;31.27;;;;;;;9.16;50.57;97216.72;5072517;28;20039;-63
2021/12/18 02:50:38;;;;;;;74.40;33.55;;;;;;;8.97;50.43;97197.59;5066222;28;20043;-63
2021/12/18 02:53:05;;;;;;;70.18;32.88;;;;;;;9.08;50.44;97186.09;5055980;28;20385;-63
2021/12/18 02:55:30;;;;;;;71.70;32.88;;;;;;;9.24;50.10;97195.06;5072665;28;20098;-63
2021/12/18 02:57:55;;;;;;;70.85;31.55;;;;;;;9.19;50.12;97179.84;5072710;28;20474;-64
2021/12/18 03:00:23;;;;;;;72.93;31.38;;;;;;;9.06;49.98;97182.88;5071854;28;20028;-63
2021/12/18 03:02:48;;;;;;;77.90;32.90;;;;;;;8.62;51.54;97216.41;5072422;28;20025;-64
2021/12/18 03:05:21;;;;;;;64.18;31.23;;;;;;;9.05;50.57;97203.28;5067498;28;20035;-63
2021/12/18 03:07:48;;;;;;;69.90;31.75;;;;;;;9.32;50.40;97208.72;5070937;28;20086;-63
2021/12/18 03:25:58;;;;;;;104.18;35.38;;;;;;;8.39;51.88;97198.78;5072296;28;20032;-63
2021/12/18 03:28:25;;;;;;;127.50;35.05;;;;;;;7.30;54.33;97189.78;5071773;28;20028;-63
2021/12/18 03:30:50;;;;;;;104.57;37.58;;;;;;;7.41;54.56;97176.78;5071807;28;20020;-63
2021/12/18 03:33:16;;;;;;;136.60;39.13;;;;;;;7.42;54.93;97160.66;5072011;28;20024;-64
2021/12/18 03:35:41;;;;;;;113.60;35.75;;;;;;;7.15;55.26;97170.13;5066848;28;20100;-64
2021/12/18 03:38:09;;;;;;;100.97;37.08;;;;;;;6.88;56.87;97205.00;5071642;28;20036;-63
2021/12/18 03:40:34;;;;;;;155.13;37.38;;;;;;;7.03;57.28;97199.25;5071210;28;20032;-63
2021/12/18 03:43:00;;;;;;;95.05;34.80;;;;;;;7.15;56.96;97204.53;5071742;28;20020;-63
2021/12/18 03:45:26;;;;;;;116.15;36.17;;;;;;;7.20;56.12;97170.25;5071823;28;20059;-66
2021/12/18 03:47:51;;;;;;;89.20;34.00;;;;;;;7.68;54.95;97174.41;5071732;28;20468;-63
2021/12/18 03:50:18;;;;;;;147.93;38.47;;;;;;;7.20;54.23;97091.66;5067694;28;20066;-63
2021/12/18 03:52:44;;;;;;;116.03;36.22;;;;;;;7.40;55.20;97183.09;5070422;28;20024;-65
2021/12/18 03:55:10;;;;;;;167.77;38.92;;;;;;;7.08;56.20;97194.09;5071315;28;20027;-63
2021/12/18 03:57:35;;;;;;;182.90;37.70;;;;;;;7.48;55.65;97182.75;5070749;28;20386;-63
2021/12/18 04:00:00;;;;;;;115.30;36.53;;;;;;;7.38;55.56;97174.59;5070099;28;20032;-63
2021/12/18 04:02:26;;;;;;;93.85;36.15;;;;;;;7.92;54.83;97173.28;5071706;28;20107;-65
2021/12/18 04:04:51;;;;;;;94.38;35.97;;;;;;;8.18;53.92;97155.97;5050032;28;20109;-65
2021/12/18 04:07:17;;;;;;;79.28;33.22;;;;;;;8.61;53.49;97178.47;5050857;28;20390;-63
2021/12/18 04:09:43;;;;;;;126.10;34.30;;;;;;;7.85;53.24;97190.38;5052493;28;20067;-63
2021/12/18 04:12:09;;;;;;;115.22;37.28;;;;;;;7.99;53.59;97181.09;5053585;28;20119;-65
2021/12/18 04:14:34;;;;;;;87.20;31.77;;;;;;;8.12;53.55;97140.22;5071308;28;20610;-65
2021/12/18 04:17:00;;;;;;;93.20;33.25;;;;;;;8.25;53.34;97127.47;5053074;28;20086;-65
2021/12/18 04:19:25;;;;;;;73.60;31.10;;;;;;;8.73;52.37;97183.69;5063152;28;20138;-65
2021/12/18 04:21:51;;;;;;;62.33;27.30;;;;;;;8.82;52.41;97172.44;5066992;28;20021;-65
2021/12/18 04:24:16;;;;;;;70.20;27.23;;;;;;;9.04;51.51;97192.91;5053095;28;20027;-65
2021/12/18 04:26:42;;;;;;;61.58;28.38;;;;;;;9.11;51.71;97197.03;5071512;28;20024;-65
2021/12/18 04:29:07;;;;;;;63.33;25.45;;;;;;;9.22;51.11;97203.28;5052087;28;20024;-65
2021/12/18 04:31:37;;;;;;;60.38;27.15;;;;;;;9.16;51.05;97164.41;5071170;28;20500;-65
2021/12/18 04:34:04;;;;;;;55.67;26.27;;;;;;;9.35;50.38;97200.25;5049521;28;20036;-64
2021/12/18 04:36:30;;;;;;;74.95;28.98;;;;;;;9.32;50.69;97190.16;5065785;28;20040;-64
2021/12/18 04:38:55;;;;;;;60.78;26.08;;;;;;;9.43;49.72;97203.56;5050130;28;20032;-64
2021/12/18 04:41:23;;;;;;;65.60;27.63;;;;;;;9.41;49.89;97197.66;5052926;28;20488;-64
2021/12/18 04:43:51;;;;;;;86.20;29.45;;;;;;;9.53;50.08;97195.72;5053067;28;20388;-64
2021/12/18 04:46:17;;;;;;;68.70;26.70;;;;;;;9.50;49.76;97204.16;5069928;28;20481;-66
2021/12/18 04:48:43;;;;;;;60.67;26.27;;;;;;;9.43;49.47;97193.72;5070553;28;20416;-64
2021/12/18 04:51:08;;;;;;;54.03;26.52;;;;;;;9.47;49.95;97202.00;5060539;28;20025;-65
2021/12/18 04:53:33;;;;;;;58.83;25.85;;;;;;;9.64;50.10;97213.38;5051279;28;20120;-64
2021/12/18 04:55:59;;;;;;;75.90;27.52;;;;;;;9.54;49.77;97192.00;5070486;28;20027;-64
2021/12/18 04:58:24;;;;;;;54.83;25.15;;;;;;;9.55;49.41;97193.59;5070393;28;20028;-64
2021/12/18 05:00:50;;;;;;;65.68;26.63;;;;;;;9.53;49.77;97195.72;5070195;28;20494;-64
2021/12/18 05:03:17;;;;;;;85.47;28.75;;;;;;;9.29;49.96;97198.59;5070596;28;20099;-65
2021/12/18 05:05:43;;;;;;;78.53;27.33;;;;;;;9.07;50.04;97187.13;5054501;28;20119;-65
2021/12/18 05:08:08;;;;;;;92.63;26.50;;;;;;;9.13;50.20;97211.91;5050802;28;20115;-64
2021/12/18 05:10:34;;;;;;;80.28;27.55;;;;;;;8.90;50.51;97210.22;5070189;28;20025;-64
2021/12/18 05:12:59;;;;;;;74.38;27.50;;;;;;;9.05;50.41;97226.38;5070571;28;20070;-65
2021/12/18 05:15:25;;;;;;;69.00;26.20;;;;;;;9.00;50.42;97199.75;5070633;28;20486;-64
2021/12/18 05:17:50;;;;;;;73.28;26.20;;;;;;;9.05;50.68;97197.97;5070578;28;20020;-64
2021/12/18 05:20:16;;;;;;;57.88;25.35;;;;;;;9.23;50.09;97207.53;5039870;28;20040;-65
2021/12/18 05:22:41;;;;;;;60.08;24.33;;;;;;;9.38;50.14;97215.72;5065954;28;20030;-64
2021/12/18 05:25:08;;;;;;;51.75;24.05;;;;;;;9.32;50.29;97206.06;5070174;28;20038;-64
2021/12/18 05:27:34;;;;;;;49.65;22.75;;;;;;;9.47;49.57;97220.59;5070120;28;20541;-64
2021/12/18 05:29:59;;;;;;;52.03;23.17;;;;;;;9.50;49.71;97214.78;5069419;28;20028;-64
2021/12/18 05:32:25;;;;;;;52.22;23.08;;;;;;;9.41;49.32;97190.50;5069718;28;20024;-64
2021/12/18 05:34:50;;;;;;;49.92;23.00;;;;;;;9.61;49.29;97208.56;5063662;28;20037;-64
2021/12/18 05:37:30;;;;;;;50.30;22.42;;;;;;;9.61;49.16;97224.50;5049566;28;20524;-64
2021/12/18 05:39:58;;;;;;;58.08;22.70;;;;;;;9.50;49.19;97220.91;5050955;28;20110;-64
2021/12/18 05:42:23;;;;;;;54.35;23.15;;;;;;;9.50;48.96;97206.81;5051965;28;20111;-64
2021/12/18 05:44:49;;;;;;;57.80;23.10;;;;;;;9.49;49.58;97218.50;5069662;28;20136;-64
2021/12/18 05:47:14;;;;;;;46.05;20.75;;;;;;;9.56;49.53;97216.47;5069448;28;20035;-64
2021/12/18 05:49:39;;;;;;;44.35;21.05;;;;;;;9.41;49.10;97189.69;5063137;28;20525;-64
2021/12/18 05:52:06;;;;;;;49.30;22.60;;;;;;;9.56;49.58;97219.13;5067079;28;20024;-64
2021/12/18 05:54:36;;;;;;;53.17;22.27;;;;;;;9.59;48.97;97208.00;5051480;28;20059;-65
2021/12/18 05:57:05;;;;;;;45.47;21.50;;;;;;;9.52;48.94;97200.22;5068727;28;20032;-64
2021/12/18 05:59:31;;;;;;;50.00;23.05;;;;;;;9.60;49.14;97212.28;5068566;28;20032;-64
2021/12/18 06:01:57;;;;;;;48.90;21.63;;;;;;;9.58;49.13;97219.69;5069554;28;20032;-64
2021/12/18 06:04:22;;;;;;;50.05;22.25;;;;;;;9.51;49.33;97211.88;5048551;28;20420;-65
2021/12/18 06:06:47;;;;;;;47.05;22.10;;;;;;;9.47;49.49;97202.81;5049001;28;20025;-64
2021/12/18 06:09:13;;;;;;;47.03;20.40;;;;;;;9.17;49.13;97181.16;5068577;28;20112;-65
2021/12/18 06:11:40;;;;;;;52.28;21.13;;;;;;;9.39;48.70;97229.78;5069369;28;20401;-64
2021/12/18 06:14:06;;;;;;;56.05;21.40;;;;;;;9.19;49.35;97217.03;5051559;28;20512;-64
2021/12/18 06:16:32;;;;;;;54.50;22.67;;;;;;;8.98;49.12;97197.34;5069294;28;20033;-64
2021/12/18 06:18:57;;;;;;;57.05;22.13;;;;;;;9.11;49.02;97215.63;5068733;28;20493;-64
2021/12/18 06:21:23;;;;;;;58.42;22.00;;;;;;;8.99;49.75;97211.44;5063243;28;20024;-65
2021/12/18 06:23:51;;;;;;;49.50;20.48;;;;;;;9.10;49.82;97229.91;5067959;28;20052;-65
2021/12/18 06:26:18;;;;;;;49.28;21.48;;;;;;;9.10;49.45;97242.38;5051022;28;20024;-64
2021/12/18 06:28:44;;;;;;;64.20;21.75;;;;;;;9.22;49.34;97240.47;5069079;28;20103;-65
2021/12/18 06:31:09;;;;;;;48.65;20.38;;;;;;;8.82;49.30;97230.81;5068309;28;20108;-65
2021/12/18 06:33:35;;;;;;;44.67;19.65;;;;;;;8.96;50.15;97222.53;5069120;28;20108;-64
2021/12/18 06:36:00;;;;;;;48.80;20.70;;;;;;;8.99;50.26;97233.47;5064678;28;20021;-64
2021/12/18 06:38:26;;;;;;;64.88;20.92;;;;;;;9.01;49.97;97235.91;5067541;28;20033;-65
2021/12/18 06:40:51;;;;;;;45.38;20.20;;;;;;;9.11;49.75;97236.06;5068829;28;20017;-64
2021/12/18 06:43:17;;;;;;;52.78;21.83;;;;;;;8.92;49.47;97193.03;5051428;28;20021;-63
2021/12/18 06:45:42;;;;;;;47.00;21.45;;;;;;;8.99;49.77;97185.69;5069172;28;20054;-66
2021/12/18 06:48:08;;;;;;;45.10;19.45;;;;;;;9.32;49.44;97224.66;5068612;28;20051;-63
2021/12/18 06:50:35;;;;;;;42.97;19.83;;;;;;;9.30;49.54;97225.94;5064737;28;20033;-65
2021/12/18 06:53:00;;;;;;;39.58;18.73;;;;;;;8.91;49.50;97153.47;5067388;28;20017;-65
2021/12/18 06:55:26;;;;;;;38.28;18.50;;;;;;;9.29;48.97;97222.50;5069237;28;20035;-64
2021/12/18 06:57:52;;;;;;;38.67;18.25;;;;;;;9.30;49.54;97213.47;5051064;28;20033;-63
2021/12/18 07:00:19;;;;;;;39.03;17.58;;;;;;;9.22;49.01;97211.25;5050089;28;20063;-64
2021/12/18 07:02:44;;;;;;;40.28;19.73;;;;;;;9.36;49.16;97215.13;5068945;28;20043;-63
2021/12/18 07:05:10;;;;;;;44.58;19.98;;;;;;;9.35;48.73;97226.81;5065918;28;20024;-65
2021/12/18 07:07:36;;;;;;;29.50;16.02;;;;;;;9.32;48.44;97211.38;5066185;28;20035;-63
2021/12/18 07:10:04;;;;;;;39.95;18.05;;;;;;;9.30;48.48;97223.28;5071429;28;20052;-63
2021/12/18 07:12:30;;;;;;;35.28;18.02;;;;;;;9.34;48.58;97203.97;5072219;28;20079;-64
2021/12/18 07:14:55;;;;;;;29.30;15.68;;;;;;;9.23;48.34;97191.59;5072429;28;20486;-64
2021/12/18 07:17:20;;;;;;;25.42;15.48;;;;;;;9.13;48.41;97191.47;5072384;28;20040;-65
2021/12/18 07:19:46;;;;;;;36.45;17.52;;;;;;;9.27;48.57;97216.63;5051122;28;20033;-64
2021/12/18 07:22:11;;;;;;;25.17;15.45;;;;;;;9.32;48.46;97200.78;5051745;28;20036;-63
2021/12/18 07:24:36;;;;;;;29.20;15.43;;;;;;;9.31;48.93;97201.00;5072069;28;20024;-65
2021/12/18 07:27:02;;;;;;;32.38;16.40;;;;;;;9.30;48.12;97189.56;5072103;28;20035;-65
2021/12/18 07:29:27;;;;;;;29.45;15.35;;;;;;;9.34;48.38;97206.63;5052767;28;20016;-66
2021/12/18 07:31:53;;;;;;;24.50;14.80;;;;;;;9.33;48.47;97202.38;5071627;28;20039;-65
2021/12/18 07:34:19;;;;;;;24.35;14.10;;;;;;;9.38;48.52;97223.69;5071570;28;20032;-64
2021/12/18 07:36:44;;;;;;;23.35;14.30;;;;;;;9.45;48.36;97220.03;5067682;28;20501;-65
2021/12/18 07:39:11;;;;;;;18.55;12.15;;;;;;;9.22;48.10;97182.03;5071128;28;20723;-64
2021/12/18 07:41:37;;;;;;;20.25;12.48;;;;;;;9.29;48.37;97193.28;5054051;28;20118;-64
2021/12/18 07:44:06;;;;;;;23.45;13.40;;;;;;;9.25;47.48;97192.16;5071862;28;20027;-67
2021/12/18 07:46:31;;;;;;;23.73;12.80;;;;;;;9.10;47.77;97171.50;5054065;28;20031;-65
2021/12/18 07:48:57;;;;;;;24.52;14.40;;;;;;;9.29;47.70;97211.88;5071111;28;20032;-66
2021/12/18 07:51:22;;;;;;;24.23;13.63;;;;;;;9.13;47.80;97180.03;5071072;28;20025;-65
2021/12/18 07:53:48;;;;;;;23.52;13.68;;;;;;;9.31;47.90;97209.75;5069360;28;20029;-66
2021/12/18 07:56:13;;;;;;;20.80;14.13;;;;;;;9.27;47.77;97203.34;5071719;28;20031;-66
2021/12/18 07:58:39;;;;;;;23.80;14.18;;;;;;;9.23;47.57;97177.53;5053154;28;20085;-63
2021/12/18 08:01:05;;;;;;;17.25;12.25;;;;;;;9.47;47.18;97213.44;5071033;28;20032;-63
2021/12/18 08:03:30;;;;;;;19.77;14.27;;;;;;;9.45;47.11;97217.38;5071641;28;20378;-66
2021/12/18 08:05:56;;;;;;;22.02;13.43;;;;;;;9.38;47.07;97204.28;5062553;28;20017;-65
2021/12/18 08:08:21;;;;;;;22.27;13.50;;;;;;;9.40;47.39;97217.31;5068613;28;20436;-66
2021/12/18 08:10:47;;;;;;;19.00;13.65;;;;;;;9.35;47.16;97192.28;5070795;28;20115;-66
2021/12/18 08:13:12;;;;;;;22.67;14.38;;;;;;;9.54;47.45;97224.69;5071485;28;20028;-66
2021/12/18 08:15:38;;;;;;;29.67;16.00;;;;;;;9.57;47.12;97223.38;5053196;28;20132;-65
2021/12/18 08:18:06;;;;;;;26.55;14.90;;;;;;;9.51;46.99;97209.22;5071109;28;20028;-66
2021/12/18 08:20:33;;;;;;;25.67;14.23;;;;;;;9.37;46.76;97189.41;5062212;28;20031;-66
2021/12/18 08:22:59;;;;;;;29.65;15.85;;;;;;;9.08;47.24;97123.16;5067626;28;20112;-66
2021/12/18 08:25:26;;;;;;;23.15;14.50;;;;;;;9.36;46.64;97162.03;5070882;28;20028;-65
2021/12/18 08:27:51;;;;;;;25.42;15.02;;;;;;;9.44;46.78;97170.63;5071088;28;20031;-66
2021/12/18 08:30:16;;;;;;;26.90;16.58;;;;;;;9.71;47.05;97213.19;5070500;28;20025;-65
2021/12/18 08:32:43;;;;;;;30.30;17.27;;;;;;;9.74;47.11;97229.47;5071063;28;20025;-64
2021/12/18 08:35:09;;;;;;;29.30;16.67;;;;;;;9.56;47.63;97208.50;5067310;28;20025;-64
2021/12/18 08:37:34;;;;;;;27.30;16.55;;;;;;;9.52;47.60;97218.84;5064708;28;20540;-64
2021/12/18 08:40:00;;;;;;;23.00;14.65;;;;;;;9.48;47.46;97220.38;5069721;28;20021;-65
2021/12/18 08:42:25;;;;;;;23.42;15.50;;;;;;;9.56;47.38;97213.81;5070807;28;20021;-63
2021/12/18 08:44:51;;;;;;;25.10;15.05;;;;;;;9.69;46.73;97199.38;5052789;28;20028;-64
2021/12/18 08:47:17;;;;;;;25.55;15.63;;;;;;;9.84;46.21;97197.69;5052667;28;20482;-64
2021/12/18 08:49:43;;;;;;;29.42;16.55;;;;;;;9.19;46.07;97198.44;5070022;28;20028;-65
2021/12/18 08:52:09;;;;;;;23.95;15.63;;;;;;;9.47;46.63;97210.78;5039387;28;20390;-67
2021/12/18 08:54:34;;;;;;;26.23;15.75;;;;;;;9.55;46.76;97222.84;5070399;28;20024;-67
2021/12/18 08:57:00;;;;;;;27.83;15.63;;;;;;;9.35;46.42;97175.56;5070722;28;20550;-70
2021/12/18 08:59:25;;;;;;;24.00;15.20;;;;;;;9.56;46.54;97227.91;5070191;28;20033;-69
2021/12/18 09:01:52;;;;;;;29.25;17.00;;;;;;;9.33;46.84;97172.34;5052860;28;20032;-66
2021/12/18 09:04:17;;;;;;;29.08;17.40;;;;;;;9.78;46.41;97221.81;5070684;28;20119;-68
2021/12/18 09:06:42;;;;;;;25.27;16.33;;;;;;;9.96;46.13;97216.16;5062797;28;20115;-65
2021/12/18 09:09:08;;;;;;;27.80;17.05;;;;;;;9.88;45.64;97187.38;5068296;28;20028;-66
2021/12/18 09:11:33;;;;;;;29.88;16.67;;;;;;;10.00;45.92;97203.97;5070353;28;20024;-66
2021/12/18 09:14:00;;;;;;;26.35;16.27;;;;;;;9.89;46.18;97184.47;5052475;28;20055;-65
2021/12/18 09:16:26;;;;;;;23.10;15.68;;;;;;;10.29;45.58;97231.19;5070132;28;20474;-66
2021/12/18 09:18:52;;;;;;;29.95;17.98;;;;;;;9.84;45.39;97155.16;5069707;28;20067;-65
2021/12/18 09:21:17;;;;;;;23.67;16.13;;;;;;;10.31;45.74;97223.75;5063371;28;20056;-65
2021/12/18 09:23:43;;;;;;;27.45;15.85;;;;;;;10.31;45.22;97218.44;5067149;28;20037;-68
2021/12/18 09:26:08;;;;;;;25.13;16.58;;;;;;;10.41;45.14;97223.84;5069550;28;20442;-68
2021/12/18 09:28:34;;;;;;;25.65;16.33;;;;;;;10.38;45.17;97204.91;5069397;28;20033;-68
2021/12/18 09:30:59;;;;;;;29.38;16.83;;;;;;;10.02;44.49;97132.72;5051347;28;20031;-71
2021/12/18 09:33:25;;;;;;;27.27;17.15;;;;;;;10.48;44.35;97225.50;5069630;28;20039;-69
2021/12/18 09:35:50;;;;;;;26.88;17.05;;;;;;;10.18;45.01;97176.22;5064306;28;20048;-68
2021/12/18 09:38:16;;;;;;;31.85;18.40;;;;;;;10.44;43.86;97205.75;5066990;28;20021;-70
2021/12/18 09:40:42;;;;;;;32.88;18.20;;;;;;;10.61;43.92;97217.13;5069434;28;20040;-70
2021/12/18 09:43:08;;;;;;;29.48;18.13;;;;;;;10.34;44.48;97171.91;5051924;28;20120;-68
2021/12/18 09:45:33;;;;;;;28.23;18.23;;;;;;;10.21;44.48;97135.84;5069560;28;20059;-65
2021/12/18 09:47:59;;;;;;;30.63;19.48;;;;;;;9.99;44.25;97113.84;5069790;28;20386;-66
2021/12/18 09:50:28;;;;;;;32.88;19.23;;;;;;;10.38;43.78;97183.63;5066070;28;20401;-67
2021/12/18 09:52:54;;;;;;;28.02;17.70;;;;;;;10.41;44.23;97180.47;5040373;28;20435;-64
2021/12/18 09:55:20;;;;;;;37.88;19.10;;;;;;;10.67;44.07;97192.16;5069302;28;20029;-66
2021/12/18 09:57:47;;;;;;;33.10;19.63;;;;;;;10.85;43.71;97201.59;5069487;28;20485;-65
2021/12/18 10:00:17;;;;;;;33.60;19.85;;;;;;;10.27;44.07;97120.75;5068754;28;20032;-66
2021/12/18 10:02:42;;;;;;;36.10;20.92;;;;;;;10.53;43.52;97127.88;5069268;28;20016;-65
2021/12/18 10:05:23;;;;;;;37.40;21.23;;;;;;;10.89;43.83;97202.69;5069311;28;20027;-65
2021/12/18 10:08:05;;;;;;;38.28;21.98;;;;;;;10.56;43.73;97188.59;5063561;28;20471;-65
2021/12/18 10:10:31;;;;;;;;;;;;;;;10.75;44.10;97194.34;5069206;28;20108;-65
2021/12/18 10:13:23;;;;;;;37.05;20.33;;;;;;;10.75;43.78;97185.53;5069349;28;19957;-65
2021/12/18 10:16:08;;;;;;;31.70;19.15;;;;;;;9.48;45.39;97153.94;5065296;28;20056;-67
2021/12/18 10:18:33;;;;;;;36.47;21.13;;;;;;;9.81;45.00;97131.72;5068949;28;20119;-66
2021/12/18 10:21:10;;;;;;;36.33;21.67;;;;;;;10.46;44.57;97177.88;5065075;28;20112;-67
2021/12/18 10:23:35;;;;;;;39.10;20.77;;;;;;;10.75;44.32;97165.06;5067802;28;20028;-65
2021/12/18 10:26:01;;;;;;;35.63;21.10;;;;;;;10.85;43.35;97146.50;5068954;28;20099;-65
2021/12/18 10:28:42;;;;;;;35.67;21.55;;;;;;;11.26;43.61;97157.41;5068677;28;20027;-65
2021/12/18 10:31:07;;;;;;;34.25;21.10;;;;;;;11.39;43.01;97150.78;5068672;28;20089;-63
2021/12/18 10:33:35;;;;;;;38.28;22.25;;;;;;;11.53;42.45;97172.44;5069067;28;20107;-63
2021/12/18 10:36:03;;;;;;;35.10;21.00;;;;;;;11.64;42.46;97171.44;5066908;28;20028;-64
2021/12/18 10:38:49;;;;;;;40.65;22.75;;;;;;;11.35;42.88;97168.34;5067338;28;20032;-64
2021/12/18 10:41:26;;;;;;;38.53;22.42;;;;;;;11.42;42.75;97159.06;5028598;28;20053;-63
2021/12/18 10:43:54;;;;;;;43.40;22.33;;;;;;;11.70;42.39;97175.72;5030683;28;20014;-67
2021/12/18 10:46:20;;;;;;;43.83;22.65;;;;;;;11.77;42.01;97165.59;5032855;28;20029;-65
2021/12/18 10:48:55;;;;;;;37.75;20.92;;;;;;;11.88;42.24;97147.81;5032875;28;20038;-67
2021/12/18 10:51:23;;;;;;;41.30;21.55;;;;;;;12.01;41.57;97167.84;5029335;28;20103;-63
2021/12/18 10:53:49;;;;;;;41.20;22.35;;;;;;;12.08;41.34;97165.72;5051916;28;20108;-62
2021/12/18 10:56:15;;;;;;;40.88;23.08;;;;;;;11.09;42.46;97152.22;5054718;28;20304;-62
2021/12/18 10:58:40;;;;;;;40.38;23.27;;;;;;;11.63;42.29;97167.16;5072256;28;20505;-62
2021/12/18 11:01:09;;;;;;;37.40;22.30;;;;;;;11.52;42.32;97162.84;5054134;28;20060;-65
2021/12/18 11:03:41;;;;;;;40.17;22.50;;;;;;;11.57;42.11;97149.56;5072491;28;20379;-64
2021/12/18 11:06:14;;;;;;;41.25;23.65;;;;;;;11.70;42.52;97157.84;5070281;28;20108;-67
2021/12/18 11:09:07;;;;;;;36.53;22.35;;;;;;;11.93;42.12;97153.97;5067454;22;20117;-57
2021/12/18 11:14:36;;;;;;;35.75;21.30;;;;;;;11.92;41.63;97128.34;5052038;28;20158;-57
2021/12/18 11:17:04;;;;;;;33.40;20.13;;;;;;;11.66;41.42;97121.31;5051000;28;20124;-58
2021/12/18 11:19:32;;;;;;;31.75;20.08;;;;;;;11.36;41.52;97098.00;5051429;28;20028;-57
2021/12/18 11:22:00;;;;;;;39.00;21.13;;;;;;;11.34;41.63;97103.59;5062163;28;20029;-59
2021/12/18 11:24:33;;;;;;;36.42;21.60;;;;;;;11.49;41.16;97086.09;5070757;28;20032;-59
2021/12/18 11:27:03;;;;;;;40.17;22.38;;;;;;;11.44;40.97;97081.53;5067506;28;20032;-61
2021/12/18 11:29:31;;;;;;;36.15;21.95;;;;;;;11.44;41.31;97111.66;5051372;28;20429;-61
2021/12/18 11:31:58;;;;;;;29.23;19.90;;;;;;;11.17;41.91;97055.88;5052471;28;20056;-62
2021/12/18 11:34:25;;;;;;;37.65;20.25;;;;;;;10.12;43.00;97073.53;5051574;28;20017;-60
2021/12/18 11:36:51;;;;;;;31.00;20.15;;;;;;;10.47;43.42;97089.00;5061856;28;20494;-61
2021/12/18 11:39:21;;;;;;;38.50;20.63;;;;;;;10.88;43.38;97099.91;5069724;28;20033;-59
2021/12/18 11:41:49;;;;;;;30.85;20.08;;;;;;;10.85;42.83;97047.19;5071570;28;20070;-60
2021/12/18 11:44:40;;;;;;;33.45;20.23;;;;;;;10.73;43.89;97099.81;5070211;28;20107;-60
2021/12/18 11:47:21;;;;;;;35.17;20.60;;;;;;;11.19;43.18;97100.88;5070271;28;20028;-60
2021/12/18 11:49:46;;;;;;;34.03;21.58;;;;;;;11.32;42.93;97078.31;5069728;28;20493;-59
2021/12/18 11:52:11;;;;;;;40.80;20.67;;;;;;;11.52;42.27;97096.22;5069813;28;20064;-60
2021/12/18 11:54:47;;;;;;;33.35;20.70;;;;;;;11.51;41.75;97089.28;5069926;28;20029;-60
2021/12/18 11:57:33;;;;;;;39.70;21.30;;;;;;;11.52;42.19;97067.72;5062964;28;20107;-59
2021/12/18 11:59:58;;;;;;;39.20;20.55;;;;;;;11.81;41.89;97085.88;5070582;28;20028;-59
2021/12/18 12:02:43;;;;;;;36.00;22.25;;;;;;;11.56;41.98;97068.75;5071255;28;20033;-60
2021/12/18 12:05:08;;;;;;;38.10;20.67;;;;;;;11.88;41.43;97079.28;5070123;28;20044;-58
2021/12/18 12:07:34;;;;;;;38.03;20.27;;;;;;;11.82;41.55;97032.31;5070346;28;20389;-58
2021/12/18 12:13:03;;;;;;;41.70;20.53;;;;;;;12.25;41.04;97064.09;5071255;28;20063;-59
2021/12/18 12:15:29;;;;;;;34.50;20.85;;;;;;;11.99;40.60;97028.63;5071064;28;20070;-62